sensor_id;sensor_type;location;lat;lon;timestamp;P1;durP1;ratioP1;P2;durP2;ratioP2
37885;SDS011;23726;52.520;13.434;2022-10-26T00:00:25;9.52;;;7.15;;
37885;SDS011;23726;52.520;13.434;2022-10-26T00:02:52;8.32;;;7.30;;
37885;SDS011;23726;52.520;13.434;2022-10-26T00:05:20;9.23;;;7.32;;
37885;SDS011;23726;52.520;13.434;2022-10-26T00:07:47;8.98;;;6.78;;
37885;SDS011;23726;52.520;13.434;2022-10-26T00:10:14;9.23;;;7.60;;
37885;SDS011;23726;52.520;13.434;2022-10-26T00:12:40;7.28;;;6.55;;
37885;SDS011;23726;52.520;13.434;2022-10-26T00:15:06;8.23;;;7.20;;
37885;SDS011;23726;52.520;13.434;2022-10-26T00:17:32;8.52;;;6.75;;
37885;SDS011;23726;52.520;13.434;2022-10-26T00:19:58;8.40;;;6.65;;
37885;SDS011;23726;52.520;13.434;2022-10-26T00:22:26;7.80;;;7.00;;
37885;SDS011;23726;52.520;13.434;2022-10-26T00:24:51;8.60;;;6.60;;
37885;SDS011;23726;52.520;13.434;2022-10-26T00:27:17;8.82;;;6.90;;
37885;SDS011;23726;52.520;13.434;2022-10-26T00:29:42;9.55;;;6.85;;
37885;SDS011;23726;52.520;13.434;2022-10-26T00:32:08;7.88;;;7.05;;
37885;SDS011;23726;52.520;13.434;2022-10-26T00:34:33;8.18;;;6.63;;
37885;SDS011;23726;52.520;13.434;2022-10-26T00:36:59;10.98;;;7.60;;
37885;SDS011;23726;52.520;13.434;2022-10-26T00:39:26;8.50;;;6.40;;
37885;SDS011;23726;52.520;13.434;2022-10-26T00:41:52;7.45;;;6.47;;
37885;SDS011;23726;52.520;13.434;2022-10-26T00:47:37;9.43;;;7.03;;
37885;SDS011;23726;52.520;13.434;2022-10-26T00:52:57;8.75;;;7.45;;
37885;SDS011;23726;52.520;13.434;2022-10-26T00:55:26;8.13;;;6.88;;
37885;SDS011;23726;52.520;13.434;2022-10-26T00:57:55;8.38;;;6.70;;
37885;SDS011;23726;52.520;13.434;2022-10-26T01:00:22;8.88;;;7.25;;
37885;SDS011;23726;52.520;13.434;2022-10-26T01:02:48;7.63;;;6.68;;
37885;SDS011;23726;52.520;13.434;2022-10-26T01:05:16;7.32;;;6.63;;
37885;SDS011;23726;52.520;13.434;2022-10-26T01:07:43;7.40;;;6.63;;
37885;SDS011;23726;52.520;13.434;2022-10-26T01:10:10;7.93;;;6.90;;
37885;SDS011;23726;52.520;13.434;2022-10-26T01:12:37;7.40;;;6.60;;
37885;SDS011;23726;52.520;13.434;2022-10-26T01:15:04;7.20;;;6.50;;
37885;SDS011;23726;52.520;13.434;2022-10-26T01:20:44;7.95;;;6.57;;
37885;SDS011;23726;52.520;13.434;2022-10-26T01:23:33;9.07;;;6.90;;
37885;SDS011;23726;52.520;13.434;2022-10-26T01:29:09;8.03;;;6.03;;
37885;SDS011;23726;52.520;13.434;2022-10-26T01:31:40;8.30;;;6.18;;
37885;SDS011;23726;52.520;13.434;2022-10-26T01:34:22;9.55;;;6.15;;
37885;SDS011;23726;52.520;13.434;2022-10-26T01:36:56;7.43;;;6.20;;
37885;SDS011;23726;52.520;13.434;2022-10-26T01:41:57;7.70;;;6.45;;
37885;SDS011;23726;52.520;13.434;2022-10-26T01:44:28;8.57;;;6.32;;
37885;SDS011;23726;52.520;13.434;2022-10-26T01:46:57;7.30;;;6.30;;
37885;SDS011;23726;52.520;13.434;2022-10-26T01:49:32;6.25;;;5.63;;
37885;SDS011;23726;52.520;13.434;2022-10-26T01:52:01;7.43;;;6.25;;
37885;SDS011;23726;52.520;13.434;2022-10-26T01:54:26;7.25;;;6.43;;
37885;SDS011;23726;52.520;13.434;2022-10-26T01:56:54;7.50;;;6.03;;
37885;SDS011;23726;52.520;13.434;2022-10-26T02:02:37;7.95;;;6.40;;
37885;SDS011;23726;52.520;13.434;2022-10-26T02:07:55;6.72;;;6.03;;
37885;SDS011;23726;52.520;13.434;2022-10-26T02:16:07;7.22;;;6.35;;
37885;SDS011;23726;52.520;13.434;2022-10-26T02:21:34;7.38;;;6.60;;
37885;SDS011;23726;52.520;13.434;2022-10-26T02:24:03;6.90;;;5.75;;
37885;SDS011;23726;52.520;13.434;2022-10-26T02:26:31;7.05;;;6.28;;
37885;SDS011;23726;52.520;13.434;2022-10-26T02:28:58;7.32;;;6.18;;
37885;SDS011;23726;52.520;13.434;2022-10-26T02:31:28;6.90;;;6.20;;
37885;SDS011;23726;52.520;13.434;2022-10-26T02:33:56;6.40;;;5.70;;
37885;SDS011;23726;52.520;13.434;2022-10-26T02:36:27;7.32;;;6.28;;
37885;SDS011;23726;52.520;13.434;2022-10-26T02:38:56;7.27;;;6.40;;
37885;SDS011;23726;52.520;13.434;2022-10-26T02:41:24;7.20;;;5.95;;
37885;SDS011;23726;52.520;13.434;2022-10-26T02:44:00;6.50;;;5.80;;
37885;SDS011;23726;52.520;13.434;2022-10-26T02:46:31;6.88;;;6.20;;
37885;SDS011;23726;52.520;13.434;2022-10-26T02:48:57;8.43;;;6.38;;
37885;SDS011;23726;52.520;13.434;2022-10-26T02:51:39;8.77;;;6.47;;
37885;SDS011;23726;52.520;13.434;2022-10-26T02:54:14;8.10;;;6.28;;
37885;SDS011;23726;52.520;13.434;2022-10-26T02:57:22;9.60;;;5.45;;
37885;SDS011;23726;52.520;13.434;2022-10-26T02:59:48;7.38;;;6.05;;
37885;SDS011;23726;52.520;13.434;2022-10-26T03:02:15;6.75;;;5.78;;
37885;SDS011;23726;52.520;13.434;2022-10-26T03:04:43;6.78;;;5.82;;
37885;SDS011;23726;52.520;13.434;2022-10-26T03:07:08;7.78;;;5.72;;
37885;SDS011;23726;52.520;13.434;2022-10-26T03:09:35;6.60;;;5.90;;
37885;SDS011;23726;52.520;13.434;2022-10-26T03:12:00;6.30;;;5.68;;
37885;SDS011;23726;52.520;13.434;2022-10-26T03:14:26;6.90;;;5.57;;
37885;SDS011;23726;52.520;13.434;2022-10-26T03:16:51;6.18;;;5.57;;
37885;SDS011;23726;52.520;13.434;2022-10-26T03:19:19;6.13;;;5.53;;
37885;SDS011;23726;52.520;13.434;2022-10-26T03:21:44;6.95;;;5.90;;
37885;SDS011;23726;52.520;13.434;2022-10-26T03:24:10;7.90;;;6.45;;
37885;SDS011;23726;52.520;13.434;2022-10-26T03:26:38;6.45;;;5.85;;
37885;SDS011;23726;52.520;13.434;2022-10-26T03:29:03;7.07;;;5.90;;
37885;SDS011;23726;52.520;13.434;2022-10-26T03:31:29;6.47;;;5.80;;
37885;SDS011;23726;52.520;13.434;2022-10-26T03:33:54;5.95;;;5.43;;
37885;SDS011;23726;52.520;13.434;2022-10-26T03:36:20;7.43;;;6.07;;
37885;SDS011;23726;52.520;13.434;2022-10-26T03:38:46;6.32;;;5.30;;
37885;SDS011;23726;52.520;13.434;2022-10-26T03:41:11;6.68;;;5.90;;
37885;SDS011;23726;52.520;13.434;2022-10-26T03:43:36;7.60;;;5.68;;
37885;SDS011;23726;52.520;13.434;2022-10-26T03:46:02;6.88;;;5.88;;
37885;SDS011;23726;52.520;13.434;2022-10-26T03:48:30;7.63;;;5.80;;
37885;SDS011;23726;52.520;13.434;2022-10-26T03:50:56;5.82;;;5.22;;
37885;SDS011;23726;52.520;13.434;2022-10-26T03:53:23;8.43;;;5.20;;
37885;SDS011;23726;52.520;13.434;2022-10-26T03:55:49;6.75;;;5.97;;
37885;SDS011;23726;52.520;13.434;2022-10-26T03:58:14;6.72;;;5.90;;
37885;SDS011;23726;52.520;13.434;2022-10-26T04:00:42;5.72;;;5.13;;
37885;SDS011;23726;52.520;13.434;2022-10-26T04:03:08;6.43;;;5.60;;
37885;SDS011;23726;52.520;13.434;2022-10-26T04:05:34;6.40;;;5.65;;
37885;SDS011;23726;52.520;13.434;2022-10-26T04:08:00;5.88;;;5.28;;
37885;SDS011;23726;52.520;13.434;2022-10-26T04:10:29;6.30;;;5.57;;
37885;SDS011;23726;52.520;13.434;2022-10-26T04:12:54;6.03;;;5.40;;
37885;SDS011;23726;52.520;13.434;2022-10-26T04:15:21;6.40;;;5.60;;
37885;SDS011;23726;52.520;13.434;2022-10-26T04:17:47;6.13;;;5.43;;
37885;SDS011;23726;52.520;13.434;2022-10-26T04:20:13;7.15;;;5.50;;
37885;SDS011;23726;52.520;13.434;2022-10-26T04:22:38;6.13;;;5.00;;
37885;SDS011;23726;52.520;13.434;2022-10-26T04:25:04;9.85;;;5.75;;
37885;SDS011;23726;52.520;13.434;2022-10-26T04:27:33;5.97;;;5.20;;
37885;SDS011;23726;52.520;13.434;2022-10-26T04:29:59;5.95;;;5.35;;
37885;SDS011;23726;52.520;13.434;2022-10-26T04:32:25;7.38;;;5.70;;
37885;SDS011;23726;52.520;13.434;2022-10-26T04:34:51;6.53;;;5.82;;
37885;SDS011;23726;52.520;13.434;2022-10-26T04:37:19;6.72;;;5.47;;
37885;SDS011;23726;52.520;13.434;2022-10-26T04:39:45;8.88;;;5.70;;
37885;SDS011;23726;52.520;13.434;2022-10-26T04:42:10;6.30;;;5.70;;
37885;SDS011;23726;52.520;13.434;2022-10-26T04:44:36;6.10;;;5.50;;
37885;SDS011;23726;52.520;13.434;2022-10-26T04:47:01;6.53;;;5.65;;
37885;SDS011;23726;52.520;13.434;2022-10-26T04:49:26;5.80;;;5.03;;
37885;SDS011;23726;52.520;13.434;2022-10-26T04:51:55;6.18;;;5.35;;
37885;SDS011;23726;52.520;13.434;2022-10-26T04:54:20;7.82;;;6.03;;
37885;SDS011;23726;52.520;13.434;2022-10-26T04:56:47;6.45;;;5.57;;
37885;SDS011;23726;52.520;13.434;2022-10-26T04:59:12;6.95;;;5.72;;
37885;SDS011;23726;52.520;13.434;2022-10-26T05:01:39;6.03;;;5.43;;
37885;SDS011;23726;52.520;13.434;2022-10-26T05:04:05;7.57;;;5.63;;
37885;SDS011;23726;52.520;13.434;2022-10-26T05:06:30;8.90;;;5.30;;
37885;SDS011;23726;52.520;13.434;2022-10-26T05:08:56;8.52;;;5.30;;
37885;SDS011;23726;52.520;13.434;2022-10-26T05:11:21;6.72;;;5.88;;
37885;SDS011;23726;52.520;13.434;2022-10-26T05:13:48;5.82;;;5.22;;
37885;SDS011;23726;52.520;13.434;2022-10-26T05:16:14;7.75;;;6.07;;
37885;SDS011;23726;52.520;13.434;2022-10-26T05:18:43;6.05;;;5.40;;
37885;SDS011;23726;52.520;13.434;2022-10-26T05:21:11;6.18;;;5.28;;
37885;SDS011;23726;52.520;13.434;2022-10-26T05:23:43;5.32;;;4.82;;
37885;SDS011;23726;52.520;13.434;2022-10-26T05:26:09;6.63;;;5.30;;
37885;SDS011;23726;52.520;13.434;2022-10-26T05:28:35;5.90;;;4.95;;
37885;SDS011;23726;52.520;13.434;2022-10-26T05:31:01;6.00;;;5.22;;
37885;SDS011;23726;52.520;13.434;2022-10-26T05:33:26;6.40;;;5.55;;
37885;SDS011;23726;52.520;13.434;2022-10-26T05:35:54;6.88;;;5.45;;
37885;SDS011;23726;52.520;13.434;2022-10-26T05:38:21;6.75;;;5.30;;
37885;SDS011;23726;52.520;13.434;2022-10-26T05:40:50;7.38;;;5.68;;
37885;SDS011;23726;52.520;13.434;2022-10-26T05:45:43;6.85;;;5.55;;
37885;SDS011;23726;52.520;13.434;2022-10-26T05:48:11;7.82;;;5.85;;
37885;SDS011;23726;52.520;13.434;2022-10-26T05:50:36;5.88;;;5.28;;
37885;SDS011;23726;52.520;13.434;2022-10-26T05:53:03;6.68;;;5.32;;
37885;SDS011;23726;52.520;13.434;2022-10-26T05:55:29;6.93;;;4.93;;
37885;SDS011;23726;52.520;13.434;2022-10-26T05:57:55;6.03;;;5.35;;
37885;SDS011;23726;52.520;13.434;2022-10-26T06:00:24;6.10;;;5.43;;
37885;SDS011;23726;52.520;13.434;2022-10-26T06:08:17;6.15;;;5.55;;
37885;SDS011;23726;52.520;13.434;2022-10-26T06:10:43;6.30;;;4.93;;
37885;SDS011;23726;52.520;13.434;2022-10-26T06:13:09;5.60;;;4.90;;
37885;SDS011;23726;52.520;13.434;2022-10-26T06:15:36;6.03;;;5.32;;
37885;SDS011;23726;52.520;13.434;2022-10-26T06:18:50;5.67;;;4.90;;
37885;SDS011;23726;52.520;13.434;2022-10-26T06:21:22;6.85;;;5.20;;
37885;SDS011;23726;52.520;13.434;2022-10-26T06:23:52;5.75;;;5.03;;
37885;SDS011;23726;52.520;13.434;2022-10-26T06:26:30;5.38;;;4.88;;
37885;SDS011;23726;52.520;13.434;2022-10-26T06:29:17;5.85;;;5.20;;
37885;SDS011;23726;52.520;13.434;2022-10-26T06:31:52;6.07;;;5.25;;
37885;SDS011;23726;52.520;13.434;2022-10-26T06:34:20;5.03;;;4.53;;
37885;SDS011;23726;52.520;13.434;2022-10-26T06:36:52;6.43;;;5.22;;
37885;SDS011;23726;52.520;13.434;2022-10-26T06:39:21;5.47;;;4.93;;
37885;SDS011;23726;52.520;13.434;2022-10-26T06:41:49;5.28;;;4.70;;
37885;SDS011;23726;52.520;13.434;2022-10-26T06:44:20;5.22;;;4.72;;
37885;SDS011;23726;52.520;13.434;2022-10-26T06:46:48;5.53;;;4.85;;
37885;SDS011;23726;52.520;13.434;2022-10-26T06:52:25;5.30;;;4.80;;
37885;SDS011;23726;52.520;13.434;2022-10-26T06:54:59;5.65;;;5.07;;
37885;SDS011;23726;52.520;13.434;2022-10-26T06:57:33;6.53;;;4.95;;
37885;SDS011;23726;52.520;13.434;2022-10-26T07:00:03;7.35;;;4.63;;
37885;SDS011;23726;52.520;13.434;2022-10-26T07:02:31;7.47;;;4.88;;
37885;SDS011;23726;52.520;13.434;2022-10-26T07:04:56;5.95;;;4.72;;
37885;SDS011;23726;52.520;13.434;2022-10-26T07:07:26;5.38;;;4.88;;
37885;SDS011;23726;52.520;13.434;2022-10-26T07:09:54;6.88;;;5.07;;
37885;SDS011;23726;52.520;13.434;2022-10-26T07:12:20;6.25;;;4.57;;
37885;SDS011;23726;52.520;13.434;2022-10-26T07:14:45;6.30;;;5.07;;
37885;SDS011;23726;52.520;13.434;2022-10-26T07:17:11;5.40;;;4.72;;
37885;SDS011;23726;52.520;13.434;2022-10-26T07:19:36;6.97;;;5.38;;
37885;SDS011;23726;52.520;13.434;2022-10-26T07:22:04;5.45;;;4.90;;
37885;SDS011;23726;52.520;13.434;2022-10-26T07:24:30;6.38;;;5.18;;
37885;SDS011;23726;52.520;13.434;2022-10-26T07:26:57;5.30;;;4.80;;
37885;SDS011;23726;52.520;13.434;2022-10-26T07:29:23;5.30;;;4.80;;
37885;SDS011;23726;52.520;13.434;2022-10-26T07:31:50;5.22;;;4.50;;
37885;SDS011;23726;52.520;13.434;2022-10-26T07:34:16;6.10;;;4.47;;
37885;SDS011;23726;52.520;13.434;2022-10-26T07:36:42;7.38;;;4.65;;
37885;SDS011;23726;52.520;13.434;2022-10-26T07:39:08;5.63;;;4.60;;
37885;SDS011;23726;52.520;13.434;2022-10-26T07:41:34;6.32;;;4.78;;
37885;SDS011;23726;52.520;13.434;2022-10-26T07:44:00;4.78;;;4.30;;
37885;SDS011;23726;52.520;13.434;2022-10-26T07:46:26;6.47;;;5.05;;
37885;SDS011;23726;52.520;13.434;2022-10-26T07:48:51;6.25;;;5.03;;
37885;SDS011;23726;52.520;13.434;2022-10-26T07:51:17;9.45;;;5.10;;
37885;SDS011;23726;52.520;13.434;2022-10-26T07:53:43;7.15;;;5.20;;
37885;SDS011;23726;52.520;13.434;2022-10-26T07:56:09;8.60;;;5.10;;
37885;SDS011;23726;52.520;13.434;2022-10-26T07:58:35;9.07;;;4.82;;
37885;SDS011;23726;52.520;13.434;2022-10-26T08:01:05;6.72;;;4.85;;
37885;SDS011;23726;52.520;13.434;2022-10-26T08:03:35;5.97;;;4.80;;
37885;SDS011;23726;52.520;13.434;2022-10-26T08:06:01;7.28;;;5.05;;
37885;SDS011;23726;52.520;13.434;2022-10-26T08:08:28;5.95;;;4.82;;
37885;SDS011;23726;52.520;13.434;2022-10-26T08:10:54;11.13;;;5.82;;
37885;SDS011;23726;52.520;13.434;2022-10-26T08:13:19;6.72;;;5.45;;
37885;SDS011;23726;52.520;13.434;2022-10-26T08:15:45;7.60;;;5.03;;
37885;SDS011;23726;52.520;13.434;2022-10-26T08:18:11;11.57;;;4.90;;
37885;SDS011;23726;52.520;13.434;2022-10-26T08:20:37;6.88;;;4.93;;
37885;SDS011;23726;52.520;13.434;2022-10-26T08:23:03;6.32;;;5.28;;
37885;SDS011;23726;52.520;13.434;2022-10-26T08:25:30;6.30;;;4.93;;
37885;SDS011;23726;52.520;13.434;2022-10-26T08:28:00;6.10;;;4.80;;
37885;SDS011;23726;52.520;13.434;2022-10-26T08:30:27;5.75;;;4.70;;
37885;SDS011;23726;52.520;13.434;2022-10-26T08:33:03;8.25;;;5.05;;
37885;SDS011;23726;52.520;13.434;2022-10-26T08:35:30;7.78;;;4.93;;
37885;SDS011;23726;52.520;13.434;2022-10-26T08:37:56;6.35;;;5.07;;
37885;SDS011;23726;52.520;13.434;2022-10-26T08:40:33;6.95;;;4.72;;
37885;SDS011;23726;52.520;13.434;2022-10-26T08:46:10;6.07;;;4.82;;
37885;SDS011;23726;52.520;13.434;2022-10-26T08:48:39;7.47;;;5.07;;
37885;SDS011;23726;52.520;13.434;2022-10-26T08:53:48;8.05;;;4.82;;
37885;SDS011;23726;52.520;13.434;2022-10-26T08:56:24;7.18;;;5.13;;
37885;SDS011;23726;52.520;13.434;2022-10-26T08:58:53;6.85;;;5.25;;
37885;SDS011;23726;52.520;13.434;2022-10-26T09:01:29;5.70;;;4.75;;
37885;SDS011;23726;52.520;13.434;2022-10-26T09:04:01;6.10;;;5.20;;
37885;SDS011;23726;52.520;13.434;2022-10-26T09:09:14;7.70;;;5.30;;
37885;SDS011;23726;52.520;13.434;2022-10-26T09:11:57;6.10;;;5.40;;
37885;SDS011;23726;52.520;13.434;2022-10-26T09:14:59;5.47;;;4.90;;
37885;SDS011;23726;52.520;13.434;2022-10-26T09:26:01;6.38;;;5.13;;
37885;SDS011;23726;52.520;13.434;2022-10-26T09:28:31;14.70;;;7.57;;
37885;SDS011;23726;52.520;13.434;2022-10-26T09:31:00;8.88;;;7.13;;
37885;SDS011;23726;52.520;13.434;2022-10-26T09:33:27;12.00;;;8.27;;
37885;SDS011;23726;52.520;13.434;2022-10-26T09:36:01;10.43;;;7.90;;
37885;SDS011;23726;52.520;13.434;2022-10-26T09:38:40;14.90;;;9.88;;
37885;SDS011;23726;52.520;13.434;2022-10-26T09:49:16;11.70;;;6.97;;
37885;SDS011;23726;52.520;13.434;2022-10-26T09:51:45;14.70;;;7.13;;
37885;SDS011;23726;52.520;13.434;2022-10-26T09:54:15;14.05;;;7.18;;
37885;SDS011;23726;52.520;13.434;2022-10-26T09:59:12;11.20;;;6.15;;
37885;SDS011;23726;52.520;13.434;2022-10-26T10:08:09;8.85;;;6.20;;
37885;SDS011;23726;52.520;13.434;2022-10-26T10:10:35;9.20;;;6.25;;
37885;SDS011;23726;52.520;13.434;2022-10-26T10:13:14;7.45;;;5.50;;
37885;SDS011;23726;52.520;13.434;2022-10-26T10:15:49;9.93;;;5.82;;
37885;SDS011;23726;52.520;13.434;2022-10-26T10:18:18;10.57;;;6.22;;
37885;SDS011;23726;52.520;13.434;2022-10-26T10:21:04;10.60;;;6.50;;
37885;SDS011;23726;52.520;13.434;2022-10-26T10:23:50;8.52;;;6.32;;
37885;SDS011;23726;52.520;13.434;2022-10-26T10:26:16;13.20;;;7.20;;
37885;SDS011;23726;52.520;13.434;2022-10-26T10:28:42;14.18;;;8.35;;
37885;SDS011;23726;52.520;13.434;2022-10-26T10:31:31;18.10;;;9.23;;
37885;SDS011;23726;52.520;13.434;2022-10-26T10:33:58;20.90;;;9.98;;
37885;SDS011;23726;52.520;13.434;2022-10-26T10:36:28;16.85;;;8.40;;
37885;SDS011;23726;52.520;13.434;2022-10-26T10:38:56;17.70;;;8.65;;
37885;SDS011;23726;52.520;13.434;2022-10-26T10:43:48;27.50;;;11.30;;
37885;SDS011;23726;52.520;13.434;2022-10-26T10:46:18;21.42;;;11.05;;
37885;SDS011;23726;52.520;13.434;2022-10-26T10:48:52;23.23;;;11.30;;
37885;SDS011;23726;52.520;13.434;2022-10-26T10:51:30;17.83;;;10.40;;
37885;SDS011;23726;52.520;13.434;2022-10-26T10:54:05;20.83;;;10.55;;
37885;SDS011;23726;52.520;13.434;2022-10-26T11:05:04;21.40;;;9.93;;
37885;SDS011;23726;52.520;13.434;2022-10-26T11:08:03;16.33;;;8.98;;
37885;SDS011;23726;52.520;13.434;2022-10-26T11:10:56;16.88;;;9.05;;
37885;SDS011;23726;52.520;13.434;2022-10-26T11:13:32;19.08;;;8.73;;
37885;SDS011;23726;52.520;13.434;2022-10-26T11:16:03;14.35;;;8.57;;
37885;SDS011;23726;52.520;13.434;2022-10-26T11:18:36;15.02;;;8.63;;
37885;SDS011;23726;52.520;13.434;2022-10-26T11:21:27;14.05;;;8.70;;
37885;SDS011;23726;52.520;13.434;2022-10-26T11:26:40;16.10;;;8.55;;
37885;SDS011;23726;52.520;13.434;2022-10-26T11:31:52;12.52;;;8.02;;
37885;SDS011;23726;52.520;13.434;2022-10-26T11:36:53;15.75;;;8.25;;
37885;SDS011;23726;52.520;13.434;2022-10-26T11:39:35;13.13;;;8.13;;
37885;SDS011;23726;52.520;13.434;2022-10-26T11:42:30;13.93;;;8.13;;
37885;SDS011;23726;52.520;13.434;2022-10-26T11:45:13;14.80;;;7.78;;
37885;SDS011;23726;52.520;13.434;2022-10-26T11:47:43;13.35;;;7.38;;
37885;SDS011;23726;52.520;13.434;2022-10-26T11:50:21;14.88;;;7.80;;
37885;SDS011;23726;52.520;13.434;2022-10-26T11:53:00;12.30;;;7.53;;
37885;SDS011;23726;52.520;13.434;2022-10-26T11:55:34;12.98;;;7.35;;
37885;SDS011;23726;52.520;13.434;2022-10-26T11:58:01;15.13;;;7.10;;
37885;SDS011;23726;52.520;13.434;2022-10-26T12:00:31;14.50;;;7.47;;
37885;SDS011;23726;52.520;13.434;2022-10-26T12:05:33;12.75;;;7.25;;
37885;SDS011;23726;52.520;13.434;2022-10-26T12:08:12;13.60;;;7.60;;
37885;SDS011;23726;52.520;13.434;2022-10-26T12:19:21;10.05;;;6.38;;
37885;SDS011;23726;52.520;13.434;2022-10-26T12:21:56;13.55;;;6.72;;
37885;SDS011;23726;52.520;13.434;2022-10-26T12:27:00;10.57;;;6.43;;
37885;SDS011;23726;52.520;13.434;2022-10-26T12:32:04;10.70;;;6.40;;
37885;SDS011;23726;52.520;13.434;2022-10-26T12:37:32;10.75;;;5.78;;
37885;SDS011;23726;52.520;13.434;2022-10-26T12:42:55;8.93;;;5.85;;
37885;SDS011;23726;52.520;13.434;2022-10-26T12:45:45;8.93;;;6.18;;
37885;SDS011;23726;52.520;13.434;2022-10-26T12:48:43;10.52;;;6.00;;
37885;SDS011;23726;52.520;13.434;2022-10-26T12:53:54;8.05;;;5.82;;
37885;SDS011;23726;52.520;13.434;2022-10-26T12:56:35;8.23;;;5.50;;
37885;SDS011;23726;52.520;13.434;2022-10-26T12:59:36;8.38;;;6.05;;
37885;SDS011;23726;52.520;13.434;2022-10-26T13:02:36;8.77;;;5.72;;
37885;SDS011;23726;52.520;13.434;2022-10-26T13:07:52;8.27;;;5.80;;
37885;SDS011;23726;52.520;13.434;2022-10-26T13:10:26;7.97;;;5.70;;
37885;SDS011;23726;52.520;13.434;2022-10-26T13:12:56;9.05;;;5.43;;
37885;SDS011;23726;52.520;13.434;2022-10-26T13:15:59;9.63;;;5.72;;
37885;SDS011;23726;52.520;13.434;2022-10-26T13:18:19;8.40;;;5.40;;
37885;SDS011;23726;52.520;13.434;2022-10-26T13:21:08;9.65;;;5.85;;
37885;SDS011;23726;52.520;13.434;2022-10-26T13:23:38;7.88;;;5.45;;
37885;SDS011;23726;52.520;13.434;2022-10-26T13:26:10;10.32;;;6.05;;
37885;SDS011;23726;52.520;13.434;2022-10-26T13:31:05;9.68;;;5.78;;
37885;SDS011;23726;52.520;13.434;2022-10-26T13:34:00;9.23;;;5.60;;
37885;SDS011;23726;52.520;13.434;2022-10-26T13:36:40;7.78;;;6.00;;
37885;SDS011;23726;52.520;13.434;2022-10-26T13:39:09;7.15;;;5.57;;
37885;SDS011;23726;52.520;13.434;2022-10-26T13:41:41;9.23;;;5.53;;
37885;SDS011;23726;52.520;13.434;2022-10-26T13:44:46;10.85;;;5.63;;
37885;SDS011;23726;52.520;13.434;2022-10-26T13:47:16;8.02;;;5.32;;
37885;SDS011;23726;52.520;13.434;2022-10-26T13:50:06;6.63;;;5.20;;
37885;SDS011;23726;52.520;13.434;2022-10-26T13:52:37;7.20;;;5.38;;
37885;SDS011;23726;52.520;13.434;2022-10-26T13:58:27;8.93;;;6.07;;
37885;SDS011;23726;52.520;13.434;2022-10-26T14:01:20;6.95;;;5.00;;
37885;SDS011;23726;52.520;13.434;2022-10-26T14:03:46;8.50;;;5.22;;
37885;SDS011;23726;52.520;13.434;2022-10-26T14:06:15;7.25;;;5.07;;
37885;SDS011;23726;52.520;13.434;2022-10-26T14:09:00;8.23;;;5.22;;
37885;SDS011;23726;52.520;13.434;2022-10-26T14:11:32;6.32;;;4.80;;
37885;SDS011;23726;52.520;13.434;2022-10-26T14:14:16;6.78;;;5.15;;
37885;SDS011;23726;52.520;13.434;2022-10-26T14:16:57;5.97;;;4.90;;
37885;SDS011;23726;52.520;13.434;2022-10-26T14:19:28;7.38;;;5.20;;
37885;SDS011;23726;52.520;13.434;2022-10-26T14:21:59;6.53;;;5.03;;
37885;SDS011;23726;52.520;13.434;2022-10-26T14:24:32;7.22;;;5.07;;
37885;SDS011;23726;52.520;13.434;2022-10-26T14:27:01;6.50;;;5.22;;
37885;SDS011;23726;52.520;13.434;2022-10-26T14:29:30;7.47;;;5.05;;
37885;SDS011;23726;52.520;13.434;2022-10-26T14:31:56;7.38;;;5.35;;
37885;SDS011;23726;52.520;13.434;2022-10-26T14:34:23;7.60;;;5.20;;
37885;SDS011;23726;52.520;13.434;2022-10-26T14:36:50;7.45;;;5.20;;
37885;SDS011;23726;52.520;13.434;2022-10-26T14:42:42;6.45;;;4.88;;
37885;SDS011;23726;52.520;13.434;2022-10-26T14:45:36;8.57;;;4.95;;
37885;SDS011;23726;52.520;13.434;2022-10-26T14:48:18;5.88;;;4.70;;
37885;SDS011;23726;52.520;13.434;2022-10-26T14:51:24;7.90;;;4.90;;
37885;SDS011;23726;52.520;13.434;2022-10-26T14:53:51;5.75;;;4.65;;
37885;SDS011;23726;52.520;13.434;2022-10-26T14:56:38;7.38;;;4.97;;
37885;SDS011;23726;52.520;13.434;2022-10-26T14:59:30;6.43;;;4.68;;
37885;SDS011;23726;52.520;13.434;2022-10-26T15:02:15;8.90;;;5.40;;
37885;SDS011;23726;52.520;13.434;2022-10-26T15:04:58;5.78;;;4.47;;
37885;SDS011;23726;52.520;13.434;2022-10-26T15:07:36;7.22;;;5.00;;
37885;SDS011;23726;52.520;13.434;2022-10-26T15:10:03;6.20;;;4.40;;
37885;SDS011;23726;52.520;13.434;2022-10-26T15:17:52;5.07;;;4.28;;
37885;SDS011;23726;52.520;13.434;2022-10-26T15:20:25;6.95;;;4.95;;
37885;SDS011;23726;52.520;13.434;2022-10-26T15:22:53;5.53;;;4.43;;
37885;SDS011;23726;52.520;13.434;2022-10-26T15:25:27;5.60;;;4.32;;
37885;SDS011;23726;52.520;13.434;2022-10-26T15:28:07;5.13;;;4.00;;
37885;SDS011;23726;52.520;13.434;2022-10-26T15:33:34;5.40;;;4.47;;
37885;SDS011;23726;52.520;13.434;2022-10-26T15:36:22;6.75;;;4.25;;
37885;SDS011;23726;52.520;13.434;2022-10-26T15:38:52;5.57;;;4.05;;
37885;SDS011;23726;52.520;13.434;2022-10-26T15:41:29;5.78;;;4.28;;
37885;SDS011;23726;52.520;13.434;2022-10-26T15:43:58;4.97;;;4.13;;
37885;SDS011;23726;52.520;13.434;2022-10-26T15:46:31;6.13;;;4.38;;
37885;SDS011;23726;52.520;13.434;2022-10-26T15:49:05;6.65;;;4.10;;
37885;SDS011;23726;52.520;13.434;2022-10-26T15:51:38;6.28;;;4.38;;
37885;SDS011;23726;52.520;13.434;2022-10-26T15:54:04;4.95;;;3.97;;
37885;SDS011;23726;52.520;13.434;2022-10-26T15:56:30;4.97;;;4.07;;
37885;SDS011;23726;52.520;13.434;2022-10-26T15:58:57;6.30;;;4.22;;
37885;SDS011;23726;52.520;13.434;2022-10-26T16:01:31;5.47;;;4.53;;
37885;SDS011;23726;52.520;13.434;2022-10-26T16:03:58;6.30;;;4.20;;
37885;SDS011;23726;52.520;13.434;2022-10-26T16:06:26;6.68;;;4.25;;
37885;SDS011;23726;52.520;13.434;2022-10-26T16:08:55;4.78;;;4.22;;
37885;SDS011;23726;52.520;13.434;2022-10-26T16:11:22;5.85;;;4.05;;
37885;SDS011;23726;52.520;13.434;2022-10-26T16:13:49;9.38;;;4.13;;
37885;SDS011;23726;52.520;13.434;2022-10-26T16:16:16;8.73;;;4.38;;
37885;SDS011;23726;52.520;13.434;2022-10-26T16:18:53;9.70;;;4.53;;
37885;SDS011;23726;52.520;13.434;2022-10-26T16:21:21;8.32;;;4.07;;
37885;SDS011;23726;52.520;13.434;2022-10-26T16:23:51;6.35;;;3.95;;
37885;SDS011;23726;52.520;13.434;2022-10-26T16:26:18;6.38;;;4.25;;
37885;SDS011;23726;52.520;13.434;2022-10-26T16:28:45;11.55;;;4.68;;
37885;SDS011;23726;52.520;13.434;2022-10-26T16:33:42;7.30;;;4.30;;
37885;SDS011;23726;52.520;13.434;2022-10-26T16:36:08;8.45;;;3.60;;
37885;SDS011;23726;52.520;13.434;2022-10-26T16:38:37;7.70;;;4.40;;
37885;SDS011;23726;52.520;13.434;2022-10-26T16:41:04;5.82;;;4.00;;
37885;SDS011;23726;52.520;13.434;2022-10-26T16:43:35;7.90;;;4.40;;
37885;SDS011;23726;52.520;13.434;2022-10-26T16:46:11;9.55;;;5.28;;
37885;SDS011;23726;52.520;13.434;2022-10-26T16:48:38;6.22;;;3.85;;
37885;SDS011;23726;52.520;13.434;2022-10-26T16:51:09;6.50;;;4.63;;
37885;SDS011;23726;52.520;13.434;2022-10-26T16:53:41;6.32;;;4.78;;
37885;SDS011;23726;52.520;13.434;2022-10-26T16:56:08;6.93;;;4.18;;
37885;SDS011;23726;52.520;13.434;2022-10-26T16:58:37;7.93;;;4.57;;
37885;SDS011;23726;52.520;13.434;2022-10-26T17:01:05;6.68;;;4.55;;
37885;SDS011;23726;52.520;13.434;2022-10-26T17:03:31;6.93;;;4.75;;
37885;SDS011;23726;52.520;13.434;2022-10-26T17:06:02;5.75;;;3.92;;
37885;SDS011;23726;52.520;13.434;2022-10-26T17:08:30;5.55;;;4.35;;
37885;SDS011;23726;52.520;13.434;2022-10-26T17:11:07;7.85;;;4.43;;
37885;SDS011;23726;52.520;13.434;2022-10-26T17:13:35;6.53;;;4.75;;
37885;SDS011;23726;52.520;13.434;2022-10-26T17:16:03;6.43;;;4.60;;